sensor_id;sensor_type;location;lat;lon;timestamp;pressure;altitude;pressure_sealevel;temperature;humidity
22930;BME280;11630;42.660;23.292;2023-06-22T00:01:45;69781.34;;;20.24;100.00
22930;BME280;11630;42.660;23.292;2023-06-22T00:04:16;69779.92;;;20.29;100.00
22930;BME280;11630;42.660;23.292;2023-06-22T00:06:47;69747.29;;;19.98;100.00
22930;BME280;11630;42.660;23.292;2023-06-22T00:09:17;69734.09;;;19.89;100.00
22930;BME280;11630;42.660;23.292;2023-06-22T00:11:48;69749.77;;;20.02;100.00
22930;BME280;11630;42.660;23.292;2023-06-22T00:14:19;69731.36;;;19.86;100.00
22930;BME280;11630;42.660;23.292;2023-06-22T00:16:50;69716.55;;;19.75;100.00
22930;BME280;11630;42.660;23.292;2023-06-22T00:19:21;69688.59;;;19.50;100.00
22930;BME280;11630;42.660;23.292;2023-06-22T00:21:52;69680.36;;;19.42;100.00
22930;BME280;11630;42.660;23.292;2023-06-22T00:24:22;69691.34;;;19.50;100.00
22930;BME280;11630;42.660;23.292;2023-06-22T00:26:53;69709.70;;;19.68;100.00
22930;BME280;11630;42.660;23.292;2023-06-22T00:29:24;69715.98;;;19.75;100.00
22930;BME280;11630;42.660;23.292;2023-06-22T00:31:54;69731.92;;;19.87;100.00
22930;BME280;11630;42.660;23.292;2023-06-22T00:34:25;69750.89;;;19.98;100.00
22930;BME280;11630;42.660;23.292;2023-06-22T00:36:56;69756.66;;;19.99;100.00
22930;BME280;11630;42.660;23.292;2023-06-22T00:39:27;69743.17;;;19.96;100.00
22930;BME280;11630;42.660;23.292;2023-06-22T00:42:01;69725.56;;;19.87;100.00
22930;BME280;11630;42.660;23.292;2023-06-22T00:44:32;69732.48;;;19.80;100.00
22930;BME280;11630;42.660;23.292;2023-06-22T00:47:07;69721.26;;;19.71;100.00
22930;BME280;11630;42.660;23.292;2023-06-22T00:49:38;69683.13;;;19.40;100.00
22930;BME280;11630;42.660;23.292;2023-06-22T00:52:09;69643.34;;;19.13;100.00
22930;BME280;11630;42.660;23.292;2023-06-22T00:54:43;69644.72;;;19.13;100.00
22930;BME280;11630;42.660;23.292;2023-06-22T00:57:15;69651.28;;;19.21;100.00
22930;BME280;11630;42.660;23.292;2023-06-22T00:59:47;69662.28;;;19.26;100.00
22930;BME280;11630;42.660;23.292;2023-06-22T01:02:18;69681.77;;;19.37;100.00
22930;BME280;11630;42.660;23.292;2023-06-22T01:04:49;69686.91;;;19.51;100.00
22930;BME280;11630;42.660;23.292;2023-06-22T01:07:37;69690.21;;;19.54;100.00
22930;BME280;11630;42.660;23.292;2023-06-22T01:12:42;69669.62;;;19.41;100.00
22930;BME280;11630;42.660;23.292;2023-06-22T01:15:18;69691.34;;;19.50;100.00
22930;BME280;11630;42.660;23.292;2023-06-22T01:17:46;69678.44;;;19.42;100.00
22930;BME280;11630;42.660;23.292;2023-06-22T01:20:20;69632.09;;;19.01;100.00
22930;BME280;11630;42.660;23.292;2023-06-22T01:28:50;69628.05;;;18.86;100.00
22930;BME280;11630;42.660;23.292;2023-06-22T01:31:28;69635.39;;;19.04;100.00
22930;BME280;11630;42.660;23.292;2023-06-22T01:34:04;69661.70;;;19.31;100.00
22930;BME280;11630;42.660;23.292;2023-06-22T01:36:35;69657.87;;;19.25;100.00
22930;BME280;11630;42.660;23.292;2023-06-22T01:39:06;69665.56;;;19.32;100.00
22930;BME280;11630;42.660;23.292;2023-06-22T01:41:39;69684.20;;;19.46;100.00
22930;BME280;11630;42.660;23.292;2023-06-22T01:44:12;69684.52;;;19.40;100.00
22930;BME280;11630;42.660;23.292;2023-06-22T01:46:44;69641.44;;;19.05;100.00
22930;BME280;11630;42.660;23.292;2023-06-22T01:49:16;69616.76;;;18.87;100.00
22930;BME280;11630;42.660;23.292;2023-06-22T01:51:46;69635.66;;;19.06;100.00
22930;BME280;11630;42.660;23.292;2023-06-22T01:54:16;69650.77;;;19.16;100.00
22930;BME280;11630;42.660;23.292;2023-06-22T01:56:47;69621.70;;;18.89;100.00
22930;BME280;11630;42.660;23.292;2023-06-22T01:59:26;69622.81;;;18.90;100.00
22930;BME280;11630;42.660;23.292;2023-06-22T02:02:07;69637.88;;;19.05;100.00
22930;BME280;11630;42.660;23.292;2023-06-22T02:04:46;69650.25;;;19.10;100.00
22930;BME280;11630;42.660;23.292;2023-06-22T02:07:17;69617.88;;;18.86;100.00
22930;BME280;11630;42.660;23.292;2023-06-22T02:09:49;69592.94;;;18.64;100.00
22930;BME280;11630;42.660;23.292;2023-06-22T02:12:21;69608.03;;;18.69;100.00
22930;BME280;11630;42.660;23.292;2023-06-22T02:14:53;69598.97;;;18.70;100.00
22930;BME280;11630;42.660;23.292;2023-06-22T02:17:23;69606.11;;;18.71;100.00
22930;BME280;11630;42.660;23.292;2023-06-22T02:19:54;69605.53;;;18.76;100.00
22930;BME280;11630;42.660;23.292;2023-06-22T02:22:25;69618.69;;;18.85;100.00
22930;BME280;11630;42.660;23.292;2023-06-22T02:24:57;69629.38;;;18.96;100.00
22930;BME280;11630;42.660;23.292;2023-06-22T02:27:28;69631.06;;;18.90;100.00
22930;BME280;11630;42.660;23.292;2023-06-22T02:30:00;69611.84;;;18.80;100.00
22930;BME280;11630;42.660;23.292;2023-06-22T02:32:31;69619.79;;;18.86;100.00
22930;BME280;11630;42.660;23.292;2023-06-22T02:35:01;69627.18;;;18.94;100.00
22930;BME280;11630;42.660;23.292;2023-06-22T02:37:37;69637.30;;;19.07;100.00
22930;BME280;11630;42.660;23.292;2023-06-22T02:40:07;69634.84;;;19.01;100.00
22930;BME280;11630;42.660;23.292;2023-06-22T02:42:39;69615.68;;;18.84;100.00
22930;BME280;11630;42.660;23.292;2023-06-22T02:45:09;69618.10;;;18.92;100.00
22930;BME280;11630;42.660;23.292;2023-06-22T02:47:40;69636.48;;;19.03;100.00
22930;BME280;11630;42.660;23.292;2023-06-22T02:50:10;69636.49;;;19.05;100.00
22930;BME280;11630;42.660;23.292;2023-06-22T02:52:41;69649.39;;;19.16;100.00
22930;BME280;11630;42.660;23.292;2023-06-22T02:55:12;69651.63;;;19.10;100.00
22930;BME280;11630;42.660;23.292;2023-06-22T02:57:43;69636.23;;;19.01;100.00
22930;BME280;11630;42.660;23.292;2023-06-22T03:00:14;69647.48;;;19.08;100.00
22930;BME280;11630;42.660;23.292;2023-06-22T03:02:47;69665.59;;;19.24;100.00
22930;BME280;11630;42.660;23.292;2023-06-22T03:05:20;69654.33;;;19.20;100.00
22930;BME280;11630;42.660;23.292;2023-06-22T03:07:52;69649.12;;;19.17;100.00
22930;BME280;11630;42.660;23.292;2023-06-22T03:10:26;69650.25;;;19.10;100.00
22930;BME280;11630;42.660;23.292;2023-06-22T03:12:56;69656.27;;;19.18;100.00
22930;BME280;11630;42.660;23.292;2023-06-22T03:15:26;69663.09;;;19.26;100.00
22930;BME280;11630;42.660;23.292;2023-06-22T03:17:58;69663.94;;;19.25;100.00
22930;BME280;11630;42.660;23.292;2023-06-22T03:20:28;69640.90;;;19.04;100.00
22930;BME280;11630;42.660;23.292;2023-06-22T03:22:59;69626.94;;;18.90;100.00
22930;BME280;11630;42.660;23.292;2023-06-22T03:25:30;69636.19;;;19.06;100.00
22930;BME280;11630;42.660;23.292;2023-06-22T03:28:01;69647.50;;;19.05;100.00
22930;BME280;11630;42.660;23.292;2023-06-22T03:30:31;69650.49;;;19.14;100.00
22930;BME280;11630;42.660;23.292;2023-06-22T03:33:02;69649.15;;;19.09;100.00
22930;BME280;11630;42.660;23.292;2023-06-22T03:35:32;69635.16;;;18.95;100.00
22930;BME280;11630;42.660;23.292;2023-06-22T03:38:04;69651.33;;;19.14;100.00
22930;BME280;11630;42.660;23.292;2023-06-22T03:40:34;69669.16;;;19.26;100.00
22930;BME280;11630;42.660;23.292;2023-06-22T03:43:05;69675.98;;;19.36;100.00
22930;BME280;11630;42.660;23.292;2023-06-22T03:45:36;69687.49;;;19.49;100.00
22930;BME280;11630;42.660;23.292;2023-06-22T03:48:07;69687.73;;;19.53;100.00
22930;BME280;11630;42.660;23.292;2023-06-22T03:50:38;69719.36;;;19.65;100.00
22930;BME280;11630;42.660;23.292;2023-06-22T03:53:09;69680.97;;;19.33;100.00
22930;BME280;11630;42.660;23.292;2023-06-22T03:55:50;69657.39;;;19.12;100.00
22930;BME280;11630;42.660;23.292;2023-06-22T03:58:21;69618.69;;;18.85;100.00
22930;BME280;11630;42.660;23.292;2023-06-22T04:00:52;69629.69;;;18.90;100.00
22930;BME280;11630;42.660;23.292;2023-06-22T04:03:22;69609.95;;;18.72;100.00
22930;BME280;11630;42.660;23.292;2023-06-22T04:05:53;69618.67;;;18.88;100.00
22930;BME280;11630;42.660;23.292;2023-06-22T04:08:24;69612.94;;;18.81;100.00
22930;BME280;11630;42.660;23.292;2023-06-22T04:10:55;69636.23;;;19.01;100.00
22930;BME280;11630;42.660;23.292;2023-06-22T04:13:28;69653.49;;;19.21;100.00
22930;BME280;11630;42.660;23.292;2023-06-22T04:15:59;69687.77;;;19.48;100.00
22930;BME280;11630;42.660;23.292;2023-06-22T04:18:30;69725.08;;;19.77;100.00
22930;BME280;11630;42.660;23.292;2023-06-22T04:21:01;69750.02;;;20.06;100.00
22930;BME280;11630;42.660;23.292;2023-06-22T04:23:32;69770.28;;;20.26;100.00
22930;BME280;11630;42.660;23.292;2023-06-22T04:26:03;69752.23;;;20.05;100.00
22930;BME280;11630;42.660;23.292;2023-06-22T04:28:34;69763.98;;;20.19;100.00
22930;BME280;11630;42.660;23.292;2023-06-22T04:31:04;69733.00;;;19.88;100.00
22930;BME280;11630;42.660;23.292;2023-06-22T04:33:35;69735.47;;;19.89;100.00
22930;BME280;11630;42.660;23.292;2023-06-22T04:36:06;69726.69;;;19.86;100.00
22930;BME280;11630;42.660;23.292;2023-06-22T04:38:37;69741.25;;;19.93;100.00
22930;BME280;11630;42.660;23.292;2023-06-22T04:41:08;69740.69;;;19.95;100.00
22930;BME280;11630;42.660;23.292;2023-06-22T04:43:38;69793.58;;;20.51;100.00
22930;BME280;11630;42.660;23.292;2023-06-22T04:46:09;69840.95;;;20.64;100.00
22930;BME280;11630;42.660;23.292;2023-06-22T04:48:40;69840.81;;;20.89;100.00
22930;BME280;11630;42.660;23.292;2023-06-22T04:51:11;69793.91;;;20.40;100.00
22930;BME280;11630;42.660;23.292;2023-06-22T04:53:42;69865.05;;;20.98;100.00
22930;BME280;11630;42.660;23.292;2023-06-22T04:56:13;69880.14;;;21.13;100.00
22930;BME280;11630;42.660;23.292;2023-06-22T04:58:44;69896.63;;;21.26;100.00
22930;BME280;11630;42.660;23.292;2023-06-22T05:01:15;69942.44;;;21.73;100.00
22930;BME280;11630;42.660;23.292;2023-06-22T05:03:46;69942.44;;;21.73;100.00
22930;BME280;11630;42.660;23.292;2023-06-22T05:06:17;69973.73;;;22.04;100.00
22930;BME280;11630;42.660;23.292;2023-06-22T05:08:48;69973.73;;;22.04;100.00
22930;BME280;11630;42.660;23.292;2023-06-22T05:11:20;69982.36;;;21.98;100.00
22930;BME280;11630;42.660;23.292;2023-06-22T05:13:53;70009.52;;;22.29;100.00
22930;BME280;11630;42.660;23.292;2023-06-22T05:16:24;70017.16;;;22.44;100.00
22930;BME280;11630;42.660;23.292;2023-06-22T05:18:56;70037.20;;;22.63;100.00
22930;BME280;11630;42.660;23.292;2023-06-22T05:21:29;70004.48;;;22.35;100.00
22930;BME280;11630;42.660;23.292;2023-06-22T05:24:00;70064.33;;;22.65;100.00
22930;BME280;11630;42.660;23.292;2023-06-22T05:26:33;70090.31;;;23.02;100.00
22930;BME280;11630;42.660;23.292;2023-06-22T05:29:04;70070.13;;;22.98;100.00
22930;BME280;11630;42.660;23.292;2023-06-22T05:31:35;70091.13;;;23.07;99.87
22930;BME280;11630;42.660;23.292;2023-06-22T05:34:04;70117.55;;;23.28;98.64
22930;BME280;11630;42.660;23.292;2023-06-22T05:36:35;70149.56;;;23.44;96.99
22930;BME280;11630;42.660;23.292;2023-06-22T05:39:13;70148.31;;;23.58;95.64
22930;BME280;11630;42.660;23.292;2023-06-22T05:41:46;70113.63;;;23.32;95.28
22930;BME280;11630;42.660;23.292;2023-06-22T05:44:16;70154.54;;;23.46;94.96
22930;BME280;11630;42.660;23.292;2023-06-22T05:46:47;70059.77;;;22.81;97.71
22930;BME280;11630;42.660;23.292;2023-06-22T05:49:18;70084.31;;;22.92;97.87
22930;BME280;11630;42.660;23.292;2023-06-22T05:51:49;70108.50;;;23.16;95.93
22930;BME280;11630;42.660;23.292;2023-06-22T05:54:20;70130.20;;;23.39;95.24
22930;BME280;11630;42.660;23.292;2023-06-22T05:56:50;70149.47;;;23.54;95.55
22930;BME280;11630;42.660;23.292;2023-06-22T05:59:22;70169.81;;;23.75;94.49
22930;BME280;11630;42.660;23.292;2023-06-22T06:01:52;70210.65;;;24.00;93.74
22930;BME280;11630;42.660;23.292;2023-06-22T06:04:23;70201.19;;;24.01;92.52
22930;BME280;11630;42.660;23.292;2023-06-22T06:06:54;70234.61;;;24.20;91.86
22930;BME280;11630;42.660;23.292;2023-06-22T06:09:24;70211.04;;;24.15;91.95
22930;BME280;11630;42.660;23.292;2023-06-22T06:11:54;70232.02;;;24.29;91.94
22930;BME280;11630;42.660;23.292;2023-06-22T06:14:24;70265.22;;;24.44;90.68
22930;BME280;11630;42.660;23.292;2023-06-22T06:16:54;70256.25;;;24.51;91.73
22930;BME280;11630;42.660;23.292;2023-06-22T06:19:25;70262.89;;;24.52;91.33
22930;BME280;11630;42.660;23.292;2023-06-22T06:21:55;70284.69;;;24.68;91.16
22930;BME280;11630;42.660;23.292;2023-06-22T06:24:26;70256.16;;;24.58;91.61
22930;BME280;11630;42.660;23.292;2023-06-22T06:26:55;70328.45;;;25.08;89.62
22930;BME280;11630;42.660;23.292;2023-06-22T06:29:26;70296.52;;;24.80;90.42
22930;BME280;11630;42.660;23.292;2023-06-22T06:31:57;70307.20;;;24.95;89.80
22930;BME280;11630;42.660;23.292;2023-06-22T06:34:28;70337.83;;;25.17;87.82
22930;BME280;11630;42.660;23.292;2023-06-22T06:36:59;70308.80;;;24.99;87.75
22930;BME280;11630;42.660;23.292;2023-06-22T06:39:30;70309.13;;;24.96;88.68
22930;BME280;11630;42.660;23.292;2023-06-22T06:42:05;70373.16;;;25.41;87.92
22930;BME280;11630;42.660;23.292;2023-06-22T06:44:36;70390.44;;;25.65;86.52
22930;BME280;11630;42.660;23.292;2023-06-22T06:47:07;70413.20;;;25.95;85.46
22930;BME280;11630;42.660;23.292;2023-06-22T06:49:38;70452.23;;;26.16;84.04
22930;BME280;11630;42.660;23.292;2023-06-22T06:52:12;70457.30;;;26.35;83.55
22930;BME280;11630;42.660;23.292;2023-06-22T06:54:47;70463.12;;;26.39;82.24
22930;BME280;11630;42.660;23.292;2023-06-22T06:57:18;70472.39;;;26.31;81.93
22930;BME280;11630;42.660;23.292;2023-06-22T06:59:49;70433.84;;;25.93;84.60
22930;BME280;11630;42.660;23.292;2023-06-22T07:02:20;70504.63;;;26.63;82.37
22930;BME280;11630;42.660;23.292;2023-06-22T07:04:53;70569.43;;;27.23;80.50
22930;BME280;11630;42.660;23.292;2023-06-22T07:07:27;70592.81;;;27.48;78.24
22930;BME280;11630;42.660;23.292;2023-06-22T07:09:58;70640.65;;;27.85;76.58
22930;BME280;11630;42.660;23.292;2023-06-22T07:12:28;70677.52;;;28.28;76.18
22930;BME280;11630;42.660;23.292;2023-06-22T07:15:07;70724.88;;;28.59;74.33
22930;BME280;11630;42.660;23.292;2023-06-22T07:17:37;70659.71;;;28.01;75.50
22930;BME280;11630;42.660;23.292;2023-06-22T07:20:09;70726.51;;;28.63;74.47
22930;BME280;11630;42.660;23.292;2023-06-22T07:22:44;70656.95;;;27.98;74.56
22930;BME280;11630;42.660;23.292;2023-06-22T07:25:14;70636.75;;;27.84;73.44
22930;BME280;11630;42.660;23.292;2023-06-22T07:27:46;70710.56;;;28.44;72.53
22930;BME280;11630;42.660;23.292;2023-06-22T07:30:16;70672.37;;;28.14;70.13
22930;BME280;11630;42.660;23.292;2023-06-22T07:32:49;70677.92;;;28.17;70.98
22930;BME280;11630;42.660;23.292;2023-06-22T07:35:22;70717.70;;;28.53;69.51
22930;BME280;11630;42.660;23.292;2023-06-22T07:37:54;70733.17;;;28.67;69.23
22930;BME280;11630;42.660;23.292;2023-06-22T07:40:24;70723.19;;;28.60;69.28
22930;BME280;11630;42.660;23.292;2023-06-22T07:42:54;70676.27;;;28.15;70.77
22930;BME280;11630;42.660;23.292;2023-06-22T07:45:25;70743.89;;;28.80;68.86
22930;BME280;11630;42.660;23.292;2023-06-22T07:47:55;70729.80;;;28.66;69.76
22930;BME280;11630;42.660;23.292;2023-06-22T07:50:26;70667.40;;;28.10;70.77
22930;BME280;11630;42.660;23.292;2023-06-22T07:52:57;70701.16;;;28.35;71.37
22930;BME280;11630;42.660;23.292;2023-06-22T07:55:31;70713.84;;;28.49;71.89
22930;BME280;11630;42.660;23.292;2023-06-22T07:58:02;70724.88;;;28.59;72.15
22930;BME280;11630;42.660;23.292;2023-06-22T08:00:38;70731.16;;;28.69;71.23
22930;BME280;11630;42.660;23.292;2023-06-22T08:03:14;70716.89;;;28.51;73.09
22930;BME280;11630;42.660;23.292;2023-06-22T08:05:45;70758.28;;;28.90;71.27
22930;BME280;11630;42.660;23.292;2023-06-22T08:08:16;70711.66;;;28.64;70.62
22930;BME280;11630;42.660;23.292;2023-06-22T08:10:46;70704.45;;;28.41;70.48
22930;BME280;11630;42.660;23.292;2023-06-22T08:13:18;70732.02;;;28.68;71.75
22930;BME280;11630;42.660;23.292;2023-06-22T08:15:49;70794.94;;;29.30;69.68
22930;BME280;11630;42.660;23.292;2023-06-22T08:18:20;70788.90;;;29.22;70.32
22930;BME280;11630;42.660;23.292;2023-06-22T08:20:50;70818.16;;;29.51;68.89
22930;BME280;11630;42.660;23.292;2023-06-22T08:23:22;70792.58;;;29.19;69.38
22930;BME280;11630;42.660;23.292;2023-06-22T08:25:53;70826.27;;;29.52;68.56
22930;BME280;11630;42.660;23.292;2023-06-22T08:28:24;70873.56;;;29.93;68.59
22930;BME280;11630;42.660;23.292;2023-06-22T08:30:54;70877.64;;;30.00;67.41
22930;BME280;11630;42.660;23.292;2023-06-22T08:33:25;70862.19;;;29.84;67.80
22930;BME280;11630;42.660;23.292;2023-06-22T08:35:57;70846.19;;;29.67;67.56
22930;BME280;11630;42.660;23.292;2023-06-22T08:38:27;70724.33;;;28.59;68.98
22930;BME280;11630;42.660;23.292;2023-06-22T08:40:58;70769.59;;;29.02;69.51
22930;BME280;11630;42.660;23.292;2023-06-22T08:43:29;70829.57;;;29.55;68.47
22930;BME280;11630;42.660;23.292;2023-06-22T08:46:00;70860.83;;;29.81;67.11
22930;BME280;11630;42.660;23.292;2023-06-22T08:48:31;70883.47;;;30.04;67.11
22930;BME280;11630;42.660;23.292;2023-06-22T08:51:02;70884.83;;;30.07;66.45
22930;BME280;11630;42.660;23.292;2023-06-22T08:53:33;70894.02;;;30.11;66.33
22930;BME280;11630;42.660;23.292;2023-06-22T08:56:04;70846.63;;;29.75;68.00
22930;BME280;11630;42.660;23.292;2023-06-22T08:58:35;70925.47;;;30.42;65.58
22930;BME280;11630;42.660;23.292;2023-06-22T09:01:06;70927.97;;;30.43;63.57
22930;BME280;11630;42.660;23.292;2023-06-22T09:03:37;70907.52;;;30.25;64.33
22930;BME280;11630;42.660;23.292;2023-06-22T09:06:08;70916.33;;;30.35;62.88
22930;BME280;11630;42.660;23.292;2023-06-22T09:08:39;70879.63;;;29.98;62.03
22930;BME280;11630;42.660;23.292;2023-06-22T09:11:10;70932.14;;;30.45;60.43
22930;BME280;11630;42.660;23.292;2023-06-22T09:13:41;70973.30;;;30.86;58.92
22930;BME280;11630;42.660;23.292;2023-06-22T09:16:13;70937.70;;;30.50;58.76
22930;BME280;11630;42.660;23.292;2023-06-22T09:18:48;70900.84;;;30.21;57.92
22930;BME280;11630;42.660;23.292;2023-06-22T09:21:18;70887.06;;;30.06;56.27
22930;BME280;11630;42.660;23.292;2023-06-22T09:23:48;70882.36;;;30.03;53.81
22930;BME280;11630;42.660;23.292;2023-06-22T09:26:22;70901.45;;;30.19;55.10
22930;BME280;11630;42.660;23.292;2023-06-22T09:28:52;70952.84;;;30.68;55.35
22930;BME280;11630;42.660;23.292;2023-06-22T09:31:23;71021.75;;;31.28;54.90
22930;BME280;11630;42.660;23.292;2023-06-22T09:33:54;71012.90;;;31.21;54.86
22930;BME280;11630;42.660;23.292;2023-06-22T09:36:24;70979.69;;;30.91;53.68
22930;BME280;11630;42.660;23.292;2023-06-22T09:38:55;70994.33;;;31.05;53.27
22930;BME280;11630;42.660;23.292;2023-06-22T09:41:25;71089.58;;;31.88;51.89
22930;BME280;11630;42.660;23.292;2023-06-22T09:43:56;71123.88;;;32.21;51.61
22930;BME280;11630;42.660;23.292;2023-06-22T09:46:26;71090.94;;;31.91;51.34
22930;BME280;11630;42.660;23.292;2023-06-22T09:48:56;71071.00;;;31.73;50.10
22930;BME280;11630;42.660;23.292;2023-06-22T09:51:27;71004.34;;;31.12;51.31
22930;BME280;11630;42.660;23.292;2023-06-22T09:53:59;70955.13;;;30.65;52.16
22930;BME280;11630;42.660;23.292;2023-06-22T09:56:30;71009.57;;;31.18;51.84
22930;BME280;11630;42.660;23.292;2023-06-22T09:59:01;71056.88;;;31.61;52.43
22930;BME280;11630;42.660;23.292;2023-06-22T10:01:31;71067.42;;;31.68;51.92
22930;BME280;11630;42.660;23.292;2023-06-22T10:04:03;71150.18;;;32.44;48.81
22930;BME280;11630;42.660;23.292;2023-06-22T10:06:34;71182.02;;;32.74;47.42
22930;BME280;11630;42.660;23.292;2023-06-22T10:09:05;71144.89;;;32.40;48.38
22930;BME280;11630;42.660;23.292;2023-06-22T10:11:36;71128.04;;;32.24;46.94
22930;BME280;11630;42.660;23.292;2023-06-22T10:14:07;71122.77;;;32.20;47.37
22930;BME280;11630;42.660;23.292;2023-06-22T10:16:38;71178.69;;;32.71;45.86
22930;BME280;11630;42.660;23.292;2023-06-22T10:19:09;71181.20;;;32.72;45.96
22930;BME280;11630;42.660;23.292;2023-06-22T10:21:40;71171.75;;;32.66;45.04
22930;BME280;11630;42.660;23.292;2023-06-22T10:24:11;71204.16;;;32.93;44.50
22930;BME280;11630;42.660;23.292;2023-06-22T10:26:42;71236.30;;;33.22;44.30
22930;BME280;11630;42.660;23.292;2023-06-22T10:29:14;71231.06;;;33.16;44.34
22930;BME280;11630;42.660;23.292;2023-06-22T10:31:44;71203.05;;;32.92;45.10
22930;BME280;11630;42.660;23.292;2023-06-22T10:34:15;71167.92;;;32.60;44.90
22930;BME280;11630;42.660;23.292;2023-06-22T10:36:44;71083.98;;;31.86;45.67
22930;BME280;11630;42.660;23.292;2023-06-22T10:39:15;71109.12;;;32.12;45.20
22930;BME280;11630;42.660;23.292;2023-06-22T10:41:46;71141.56;;;32.37;45.82
22930;BME280;11630;42.660;23.292;2023-06-22T10:44:19;71132.46;;;32.28;45.65
22930;BME280;11630;42.660;23.292;2023-06-22T10:46:51;71137.15;;;32.33;46.11
22930;BME280;11630;42.660;23.292;2023-06-22T10:49:21;71146.84;;;32.41;46.92
22930;BME280;11630;42.660;23.292;2023-06-22T10:51:53;71199.73;;;32.89;46.49
22930;BME280;11630;42.660;23.292;2023-06-22T10:54:24;71224.13;;;33.11;45.01
22930;BME280;11630;42.660;23.292;2023-06-22T10:56:55;71275.66;;;33.58;44.18
22930;BME280;11630;42.660;23.292;2023-06-22T10:59:26;71298.09;;;33.79;42.56
22930;BME280;11630;42.660;23.292;2023-06-22T11:01:58;71332.50;;;34.07;42.67
22930;BME280;11630;42.660;23.292;2023-06-22T11:04:27;71335.78;;;34.13;43.62
22930;BME280;11630;42.660;23.292;2023-06-22T11:06:59;71325.53;;;34.02;42.45
22930;BME280;11630;42.660;23.292;2023-06-22T11:09:33;71211.61;;;33.01;44.36
22930;BME280;11630;42.660;23.292;2023-06-22T11:12:06;71177.59;;;32.70;45.05
22930;BME280;11630;42.660;23.292;2023-06-22T11:14:39;71305.84;;;33.86;42.93
22930;BME280;11630;42.660;23.292;2023-06-22T11:17:10;71361.28;;;34.36;42.09
22930;BME280;11630;42.660;23.292;2023-06-22T11:19:41;71368.73;;;34.44;42.08
22930;BME280;11630;42.660;23.292;2023-06-22T11:22:12;71409.84;;;34.78;41.60
22930;BME280;11630;42.660;23.292;2023-06-22T11:24:42;71430.06;;;34.97;41.25
22930;BME280;11630;42.660;23.292;2023-06-22T11:27:13;71424.25;;;34.91;40.69
22930;BME280;11630;42.660;23.292;2023-06-22T11:29:43;71435.09;;;34.99;40.27
22930;BME280;11630;42.660;23.292;2023-06-22T11:32:16;71410.39;;;34.78;39.89
22930;BME280;11630;42.660;23.292;2023-06-22T11:34:47;71351.00;;;34.28;40.58
22930;BME280;11630;42.660;23.292;2023-06-22T11:37:18;71307.50;;;33.87;41.01
22930;BME280;11630;42.660;23.292;2023-06-22T11:39:49;71152.65;;;32.47;43.06
22930;BME280;11630;42.660;23.292;2023-06-22T11:42:19;71145.20;;;32.39;44.09
22930;BME280;11630;42.660;23.292;2023-06-22T11:44:49;71148.23;;;32.43;43.59
22930;BME280;11630;42.660;23.292;2023-06-22T11:47:20;71115.02;;;32.13;43.78
22930;BME280;11630;42.660;23.292;2023-06-22T11:49:51;71114.15;;;32.14;44.50
22930;BME280;11630;42.660;23.292;2023-06-22T11:52:22;71126.34;;;32.25;44.86
22930;BME280;11630;42.660;23.292;2023-06-22T11:54:53;71098.44;;;31.96;45.34
22930;BME280;11630;42.660;23.292;2023-06-22T11:57:24;71098.93;;;31.99;47.33
22930;BME280;11630;42.660;23.292;2023-06-22T11:59:56;71024.52;;;31.31;46.49
22930;BME280;11630;42.660;23.292;2023-06-22T12:02:26;71018.77;;;31.22;46.47
22930;BME280;11630;42.660;23.292;2023-06-22T12:04:56;70901.14;;;30.20;49.32
22930;BME280;11630;42.660;23.292;2023-06-22T12:07:27;70862.44;;;29.85;50.91
22930;BME280;11630;42.660;23.292;2023-06-22T12:09:57;70856.91;;;29.80;51.77
22930;BME280;11630;42.660;23.292;2023-06-22T12:12:29;70830.68;;;29.56;52.50
22930;BME280;11630;42.660;23.292;2023-06-22T12:15:00;70843.09;;;29.68;54.90
22930;BME280;11630;42.660;23.292;2023-06-22T12:17:34;70793.34;;;29.23;55.24
22930;BME280;11630;42.660;23.292;2023-06-22T12:20:05;70816.03;;;29.44;55.82
22930;BME280;11630;42.660;23.292;2023-06-22T12:22:35;70796.67;;;29.26;55.80
22930;BME280;11630;42.660;23.292;2023-06-22T12:25:06;70753.88;;;28.86;59.63
22930;BME280;11630;42.660;23.292;2023-06-22T12:27:38;70719.91;;;28.55;62.05
22930;BME280;11630;42.660;23.292;2023-06-22T12:30:08;70716.85;;;28.53;62.04
22930;BME280;11630;42.660;23.292;2023-06-22T12:32:38;70685.41;;;28.22;65.93
22930;BME280;11630;42.660;23.292;2023-06-22T12:35:09;70633.22;;;27.77;70.80
22930;BME280;11630;42.660;23.292;2023-06-22T12:37:42;70547.84;;;27.09;73.34
22930;BME280;11630;42.660;23.292;2023-06-22T12:40:14;70465.38;;;26.36;80.21
22930;BME280;11630;42.660;23.292;2023-06-22T12:42:46;70406.92;;;25.85;88.80
22930;BME280;11630;42.660;23.292;2023-06-22T12:45:16;70347.87;;;25.40;98.74
22930;BME280;11630;42.660;23.292;2023-06-22T12:47:47;70271.38;;;24.66;100.00
22930;BME280;11630;42.660;23.292;2023-06-22T12:50:18;70229.53;;;24.28;100.00
22930;BME280;11630;42.660;23.292;2023-06-22T12:52:49;70173.30;;;23.87;100.00
22930;BME280;11630;42.660;23.292;2023-06-22T12:55:19;70183.02;;;23.87;100.00
22930;BME280;11630;42.660;23.292;2023-06-22T12:57:50;70215.80;;;24.13;100.00
22930;BME280;11630;42.660;23.292;2023-06-22T13:00:21;70294.38;;;24.73;100.00
22930;BME280;11630;42.660;23.292;2023-06-22T13:02:50;70331.16;;;25.16;98.75
22930;BME280;11630;42.660;23.292;2023-06-22T13:05:21;70356.36;;;25.51;99.80
22930;BME280;11630;42.660;23.292;2023-06-22T13:07:53;70387.27;;;25.74;100.00
22930;BME280;11630;42.660;23.292;2023-06-22T13:10:25;70432.98;;;25.94;100.00
22930;BME280;11630;42.660;23.292;2023-06-22T13:12:56;70381.13;;;25.52;100.00
22930;BME280;11630;42.660;23.292;2023-06-22T13:15:30;70363.95;;;25.44;100.00